sensor_id;sensor_type;location;lat;lon;timestamp;temperature;humidity
46283;DHT22;32017;43.700;11.820;2023-07-13T00:00:58;22.40;99.00
46283;DHT22;32017;43.700;11.820;2023-07-13T00:03:18;22.40;98.70
46283;DHT22;32017;43.700;11.820;2023-07-13T00:05:38;22.50;98.00
46283;DHT22;32017;43.700;11.820;2023-07-13T00:07:58;22.20;99.50
46283;DHT22;32017;43.700;11.820;2023-07-13T00:10:18;22.20;99.20
46283;DHT22;32017;43.700;11.820;2023-07-13T00:12:39;22.10;99.60
46283;DHT22;32017;43.700;11.820;2023-07-13T00:15:07;22.10;99.50
46283;DHT22;32017;43.700;11.820;2023-07-13T00:17:28;21.80;99.90
46283;DHT22;32017;43.700;11.820;2023-07-13T00:19:48;21.60;99.90
46283;DHT22;32017;43.700;11.820;2023-07-13T00:22:07;21.30;99.90
46283;DHT22;32017;43.700;11.820;2023-07-13T00:24:27;21.10;99.90
46283;DHT22;32017;43.700;11.820;2023-07-13T00:26:48;21.30;99.90
46283;DHT22;32017;43.700;11.820;2023-07-13T00:29:08;21.30;99.90
46283;DHT22;32017;43.700;11.820;2023-07-13T00:31:28;21.30;99.90
46283;DHT22;32017;43.700;11.820;2023-07-13T00:33:48;21.50;99.90
46283;DHT22;32017;43.700;11.820;2023-07-13T00:36:09;21.50;99.90
46283;DHT22;32017;43.700;11.820;2023-07-13T00:38:29;21.60;99.90
46283;DHT22;32017;43.700;11.820;2023-07-13T00:40:50;21.60;99.90
46283;DHT22;32017;43.700;11.820;2023-07-13T00:43:18;21.40;99.90
46283;DHT22;32017;43.700;11.820;2023-07-13T00:48:02;21.60;98.40
46283;DHT22;32017;43.700;11.820;2023-07-13T00:50:23;21.80;98.60
46283;DHT22;32017;43.700;11.820;2023-07-13T00:52:46;21.70;99.90
46283;DHT22;32017;43.700;11.820;2023-07-13T00:55:08;21.60;99.90
46283;DHT22;32017;43.700;11.820;2023-07-13T00:57:29;21.50;99.90
46283;DHT22;32017;43.700;11.820;2023-07-13T00:59:55;21.40;99.90
46283;DHT22;32017;43.700;11.820;2023-07-13T01:02:16;21.40;99.90
46283;DHT22;32017;43.700;11.820;2023-07-13T01:04:36;21.10;99.90
46283;DHT22;32017;43.700;11.820;2023-07-13T01:06:58;21.00;99.90
46283;DHT22;32017;43.700;11.820;2023-07-13T01:09:19;20.90;99.90
46283;DHT22;32017;43.700;11.820;2023-07-13T01:11:40;20.80;99.90
46283;DHT22;32017;43.700;11.820;2023-07-13T01:14:02;21.00;99.90
46283;DHT22;32017;43.700;11.820;2023-07-13T01:16:30;20.90;99.90
46283;DHT22;32017;43.700;11.820;2023-07-13T01:18:51;21.10;99.90
46283;DHT22;32017;43.700;11.820;2023-07-13T01:21:11;21.10;99.90
46283;DHT22;32017;43.700;11.820;2023-07-13T01:23:32;21.20;99.90
46283;DHT22;32017;43.700;11.820;2023-07-13T01:25:53;21.30;99.90
46283;DHT22;32017;43.700;11.820;2023-07-13T01:28:14;21.30;99.90
46283;DHT22;32017;43.700;11.820;2023-07-13T01:30:37;21.30;99.90
46283;DHT22;32017;43.700;11.820;2023-07-13T01:32:59;21.40;99.90
46283;DHT22;32017;43.700;11.820;2023-07-13T01:35:19;21.50;99.80
46283;DHT22;32017;43.700;11.820;2023-07-13T01:37:39;21.50;99.90
46283;DHT22;32017;43.700;11.820;2023-07-13T01:39:59;21.40;99.90
46283;DHT22;32017;43.700;11.820;2023-07-13T01:42:19;21.30;99.90
46283;DHT22;32017;43.700;11.820;2023-07-13T01:44:40;21.10;99.90
46283;DHT22;32017;43.700;11.820;2023-07-13T01:47:00;20.80;99.90
46283;DHT22;32017;43.700;11.820;2023-07-13T01:49:21;20.60;99.90
46283;DHT22;32017;43.700;11.820;2023-07-13T01:51:41;20.50;99.90
46283;DHT22;32017;43.700;11.820;2023-07-13T01:54:00;20.40;99.90
46283;DHT22;32017;43.700;11.820;2023-07-13T01:56:21;20.30;99.90
46283;DHT22;32017;43.700;11.820;2023-07-13T01:58:41;20.30;99.90
46283;DHT22;32017;43.700;11.820;2023-07-13T02:01:01;20.30;99.90
46283;DHT22;32017;43.700;11.820;2023-07-13T02:03:21;20.30;99.90
46283;DHT22;32017;43.700;11.820;2023-07-13T02:05:41;20.30;99.90
46283;DHT22;32017;43.700;11.820;2023-07-13T02:08:01;20.40;99.90
46283;DHT22;32017;43.700;11.820;2023-07-13T02:10:21;20.40;99.90
46283;DHT22;32017;43.700;11.820;2023-07-13T02:12:41;20.40;99.90
46283;DHT22;32017;43.700;11.820;2023-07-13T02:15:03;20.40;99.90
46283;DHT22;32017;43.700;11.820;2023-07-13T02:17:23;20.20;99.90
46283;DHT22;32017;43.700;11.820;2023-07-13T02:19:43;20.20;99.90
46283;DHT22;32017;43.700;11.820;2023-07-13T02:22:03;20.20;99.90
46283;DHT22;32017;43.700;11.820;2023-07-13T02:24:23;20.00;99.90
46283;DHT22;32017;43.700;11.820;2023-07-13T02:26:44;20.20;99.90
46283;DHT22;32017;43.700;11.820;2023-07-13T02:29:04;20.20;99.90
46283;DHT22;32017;43.700;11.820;2023-07-13T02:31:24;20.10;99.90
46283;DHT22;32017;43.700;11.820;2023-07-13T02:33:44;20.10;99.90
46283;DHT22;32017;43.700;11.820;2023-07-13T02:36:05;20.10;99.90
46283;DHT22;32017;43.700;11.820;2023-07-13T02:38:25;20.00;99.90
46283;DHT22;32017;43.700;11.820;2023-07-13T02:40:46;20.00;99.90
46283;DHT22;32017;43.700;11.820;2023-07-13T02:43:06;19.70;99.90
46283;DHT22;32017;43.700;11.820;2023-07-13T02:45:26;19.60;99.90
46283;DHT22;32017;43.700;11.820;2023-07-13T02:47:46;19.60;99.90
46283;DHT22;32017;43.700;11.820;2023-07-13T02:50:06;19.70;99.90
46283;DHT22;32017;43.700;11.820;2023-07-13T02:52:27;19.60;99.90
46283;DHT22;32017;43.700;11.820;2023-07-13T02:54:47;19.40;99.90
46283;DHT22;32017;43.700;11.820;2023-07-13T02:57:07;19.50;99.90
46283;DHT22;32017;43.700;11.820;2023-07-13T02:59:27;19.20;99.90
46283;DHT22;32017;43.700;11.820;2023-07-13T03:01:47;19.40;99.90
46283;DHT22;32017;43.700;11.820;2023-07-13T03:04:07;19.30;99.90
46283;DHT22;32017;43.700;11.820;2023-07-13T03:06:27;19.20;99.90
46283;DHT22;32017;43.700;11.820;2023-07-13T03:08:50;19.30;99.90
46283;DHT22;32017;43.700;11.820;2023-07-13T03:11:13;19.50;99.90
46283;DHT22;32017;43.700;11.820;2023-07-13T03:13:33;19.40;99.90
46283;DHT22;32017;43.700;11.820;2023-07-13T03:15:54;19.30;99.90
46283;DHT22;32017;43.700;11.820;2023-07-13T03:18:14;19.30;99.90
46283;DHT22;32017;43.700;11.820;2023-07-13T03:20:34;19.40;99.90
46283;DHT22;32017;43.700;11.820;2023-07-13T03:22:54;19.30;99.90
46283;DHT22;32017;43.700;11.820;2023-07-13T03:25:14;19.30;99.90
46283;DHT22;32017;43.700;11.820;2023-07-13T03:27:34;19.20;99.90
46283;DHT22;32017;43.700;11.820;2023-07-13T03:29:54;19.30;99.90
46283;DHT22;32017;43.700;11.820;2023-07-13T03:32:14;19.30;99.90
46283;DHT22;32017;43.700;11.820;2023-07-13T03:34:33;19.30;99.90
46283;DHT22;32017;43.700;11.820;2023-07-13T03:36:56;19.20;99.90
46283;DHT22;32017;43.700;11.820;2023-07-13T03:39:16;19.10;99.90
46283;DHT22;32017;43.700;11.820;2023-07-13T03:41:38;18.90;99.90
46283;DHT22;32017;43.700;11.820;2023-07-13T03:43:58;18.60;99.90
46283;DHT22;32017;43.700;11.820;2023-07-13T03:46:19;18.80;99.90
46283;DHT22;32017;43.700;11.820;2023-07-13T03:48:41;19.10;99.90
46283;DHT22;32017;43.700;11.820;2023-07-13T03:51:02;19.10;99.90
46283;DHT22;32017;43.700;11.820;2023-07-13T03:53:22;19.00;99.90
46283;DHT22;32017;43.700;11.820;2023-07-13T03:55:42;19.00;99.90
46283;DHT22;32017;43.700;11.820;2023-07-13T03:58:24;19.00;99.90
46283;DHT22;32017;43.700;11.820;2023-07-13T04:00:45;19.20;99.90
46283;DHT22;32017;43.700;11.820;2023-07-13T04:03:06;19.20;99.90
46283;DHT22;32017;43.700;11.820;2023-07-13T04:05:26;19.10;99.90
46283;DHT22;32017;43.700;11.820;2023-07-13T04:07:46;18.80;99.90
46283;DHT22;32017;43.700;11.820;2023-07-13T04:10:06;18.50;99.90
46283;DHT22;32017;43.700;11.820;2023-07-13T04:12:26;18.40;99.90
46283;DHT22;32017;43.700;11.820;2023-07-13T04:14:48;18.20;99.90
46283;DHT22;32017;43.700;11.820;2023-07-13T04:17:08;18.00;99.90
46283;DHT22;32017;43.700;11.820;2023-07-13T04:19:29;18.10;99.90
46283;DHT22;32017;43.700;11.820;2023-07-13T04:21:49;18.20;99.90
46283;DHT22;32017;43.700;11.820;2023-07-13T04:24:09;18.30;99.90
46283;DHT22;32017;43.700;11.820;2023-07-13T04:26:29;18.40;99.90
46283;DHT22;32017;43.700;11.820;2023-07-13T04:28:50;18.40;99.90
46283;DHT22;32017;43.700;11.820;2023-07-13T04:31:11;18.60;99.90
46283;DHT22;32017;43.700;11.820;2023-07-13T04:33:31;18.70;99.90
46283;DHT22;32017;43.700;11.820;2023-07-13T04:35:52;18.70;99.90
46283;DHT22;32017;43.700;11.820;2023-07-13T04:38:18;18.70;99.90
46283;DHT22;32017;43.700;11.820;2023-07-13T04:40:39;18.80;99.90
46283;DHT22;32017;43.700;11.820;2023-07-13T04:42:59;18.80;99.90
46283;DHT22;32017;43.700;11.820;2023-07-13T04:45:19;18.90;99.90
46283;DHT22;32017;43.700;11.820;2023-07-13T04:47:40;18.80;99.90
46283;DHT22;32017;43.700;11.820;2023-07-13T04:50:00;18.60;99.90
46283;DHT22;32017;43.700;11.820;2023-07-13T04:52:20;18.60;99.90
46283;DHT22;32017;43.700;11.820;2023-07-13T04:54:40;18.80;99.90
46283;DHT22;32017;43.700;11.820;2023-07-13T04:57:00;19.00;99.90
46283;DHT22;32017;43.700;11.820;2023-07-13T04:59:20;19.10;99.90
46283;DHT22;32017;43.700;11.820;2023-07-13T05:01:41;19.00;99.90
46283;DHT22;32017;43.700;11.820;2023-07-13T05:04:01;19.00;99.90
46283;DHT22;32017;43.700;11.820;2023-07-13T05:06:21;19.00;99.90
46283;DHT22;32017;43.700;11.820;2023-07-13T05:08:41;19.00;99.90
46283;DHT22;32017;43.700;11.820;2023-07-13T05:11:03;19.00;99.90
46283;DHT22;32017;43.700;11.820;2023-07-13T05:13:24;19.00;99.90
46283;DHT22;32017;43.700;11.820;2023-07-13T05:15:55;19.10;99.90
46283;DHT22;32017;43.700;11.820;2023-07-13T05:18:15;19.20;99.90
46283;DHT22;32017;43.700;11.820;2023-07-13T05:20:35;19.20;99.90
46283;DHT22;32017;43.700;11.820;2023-07-13T05:22:56;19.20;99.90
46283;DHT22;32017;43.700;11.820;2023-07-13T05:25:16;19.30;99.90
46283;DHT22;32017;43.700;11.820;2023-07-13T05:27:36;19.30;99.90
46283;DHT22;32017;43.700;11.820;2023-07-13T05:29:56;19.30;99.90
46283;DHT22;32017;43.700;11.820;2023-07-13T05:32:17;19.40;99.90
46283;DHT22;32017;43.700;11.820;2023-07-13T05:34:38;19.40;99.90
46283;DHT22;32017;43.700;11.820;2023-07-13T05:36:58;19.50;99.90
46283;DHT22;32017;43.700;11.820;2023-07-13T05:39:18;19.40;99.90
46283;DHT22;32017;43.700;11.820;2023-07-13T05:41:38;19.50;99.90
46283;DHT22;32017;43.700;11.820;2023-07-13T05:43:58;19.50;99.90
46283;DHT22;32017;43.700;11.820;2023-07-13T05:46:18;19.70;99.90
46283;DHT22;32017;43.700;11.820;2023-07-13T05:48:38;19.70;99.90
46283;DHT22;32017;43.700;11.820;2023-07-13T05:50:58;19.70;99.90
46283;DHT22;32017;43.700;11.820;2023-07-13T05:53:19;19.70;99.90
46283;DHT22;32017;43.700;11.820;2023-07-13T05:55:46;19.80;99.90
46283;DHT22;32017;43.700;11.820;2023-07-13T05:58:11;20.00;99.90
46283;DHT22;32017;43.700;11.820;2023-07-13T06:00:31;20.20;99.90
46283;DHT22;32017;43.700;11.820;2023-07-13T06:02:50;20.30;99.90
46283;DHT22;32017;43.700;11.820;2023-07-13T06:05:11;20.20;99.90
46283;DHT22;32017;43.700;11.820;2023-07-13T06:07:31;20.40;99.90
46283;DHT22;32017;43.700;11.820;2023-07-13T06:09:51;20.30;99.90
46283;DHT22;32017;43.700;11.820;2023-07-13T06:12:11;20.50;99.90
46283;DHT22;32017;43.700;11.820;2023-07-13T06:14:32;20.70;99.90
46283;DHT22;32017;43.700;11.820;2023-07-13T06:16:52;20.60;99.90
46283;DHT22;32017;43.700;11.820;2023-07-13T06:19:12;20.70;99.90
46283;DHT22;32017;43.700;11.820;2023-07-13T06:21:32;20.90;99.90
46283;DHT22;32017;43.700;11.820;2023-07-13T06:23:52;21.10;99.90
46283;DHT22;32017;43.700;11.820;2023-07-13T06:26:12;21.20;99.90
46283;DHT22;32017;43.700;11.820;2023-07-13T06:28:33;21.30;99.90
46283;DHT22;32017;43.700;11.820;2023-07-13T06:30:53;21.50;99.90
46283;DHT22;32017;43.700;11.820;2023-07-13T06:33:13;21.80;99.90
46283;DHT22;32017;43.700;11.820;2023-07-13T06:35:33;22.00;99.90
46283;DHT22;32017;43.700;11.820;2023-07-13T06:37:53;21.90;99.90
46283;DHT22;32017;43.700;11.820;2023-07-13T06:40:13;22.40;99.90
46283;DHT22;32017;43.700;11.820;2023-07-13T06:42:33;22.50;99.90
46283;DHT22;32017;43.700;11.820;2023-07-13T06:44:53;22.60;99.90
46283;DHT22;32017;43.700;11.820;2023-07-13T06:47:12;22.60;99.90
46283;DHT22;32017;43.700;11.820;2023-07-13T06:49:32;22.60;99.90
46283;DHT22;32017;43.700;11.820;2023-07-13T06:51:53;22.70;99.90
46283;DHT22;32017;43.700;11.820;2023-07-13T06:54:13;22.90;99.90
46283;DHT22;32017;43.700;11.820;2023-07-13T06:56:33;23.20;99.90
46283;DHT22;32017;43.700;11.820;2023-07-13T06:58:54;23.40;99.90
46283;DHT22;32017;43.700;11.820;2023-07-13T07:01:14;23.70;99.90
46283;DHT22;32017;43.700;11.820;2023-07-13T07:03:35;24.10;99.90
46283;DHT22;32017;43.700;11.820;2023-07-13T07:06:07;24.30;99.90
46283;DHT22;32017;43.700;11.820;2023-07-13T07:08:31;24.40;99.90
46283;DHT22;32017;43.700;11.820;2023-07-13T07:10:51;24.60;99.90
46283;DHT22;32017;43.700;11.820;2023-07-13T07:13:13;24.60;99.90
46283;DHT22;32017;43.700;11.820;2023-07-13T07:15:35;24.40;99.90
46283;DHT22;32017;43.700;11.820;2023-07-13T07:17:55;24.40;99.90
46283;DHT22;32017;43.700;11.820;2023-07-13T07:20:15;24.60;99.90
46283;DHT22;32017;43.700;11.820;2023-07-13T07:22:35;24.80;99.90
46283;DHT22;32017;43.700;11.820;2023-07-13T07:24:55;25.10;99.90
46283;DHT22;32017;43.700;11.820;2023-07-13T07:27:15;25.20;99.90
46283;DHT22;32017;43.700;11.820;2023-07-13T07:29:38;25.30;99.90
46283;DHT22;32017;43.700;11.820;2023-07-13T07:32:03;25.30;99.90
46283;DHT22;32017;43.700;11.820;2023-07-13T07:34:37;25.30;99.90
46283;DHT22;32017;43.700;11.820;2023-07-13T07:37:01;25.30;99.90
46283;DHT22;32017;43.700;11.820;2023-07-13T07:39:24;25.40;99.90
46283;DHT22;32017;43.700;11.820;2023-07-13T07:41:44;25.70;99.90
46283;DHT22;32017;43.700;11.820;2023-07-13T07:44:16;26.10;99.90
46283;DHT22;32017;43.700;11.820;2023-07-13T07:46:36;26.40;99.90
46283;DHT22;32017;43.700;11.820;2023-07-13T07:48:56;26.40;99.90
46283;DHT22;32017;43.700;11.820;2023-07-13T07:51:16;26.30;99.90
46283;DHT22;32017;43.700;11.820;2023-07-13T07:53:36;26.50;99.90
46283;DHT22;32017;43.700;11.820;2023-07-13T07:55:56;26.70;99.90
46283;DHT22;32017;43.700;11.820;2023-07-13T07:58:36;26.60;99.90
46283;DHT22;32017;43.700;11.820;2023-07-13T08:01:05;26.80;99.90
46283;DHT22;32017;43.700;11.820;2023-07-13T08:03:29;26.80;99.90
46283;DHT22;32017;43.700;11.820;2023-07-13T08:06:08;26.90;99.90
46283;DHT22;32017;43.700;11.820;2023-07-13T08:08:31;27.30;99.90
46283;DHT22;32017;43.700;11.820;2023-07-13T08:10:51;26.90;99.90
46283;DHT22;32017;43.700;11.820;2023-07-13T08:13:15;27.10;99.90
46283;DHT22;32017;43.700;11.820;2023-07-13T08:15:35;27.10;99.90
46283;DHT22;32017;43.700;11.820;2023-07-13T08:17:56;27.10;99.90
46283;DHT22;32017;43.700;11.820;2023-07-13T08:20:17;27.10;99.90
46283;DHT22;32017;43.700;11.820;2023-07-13T08:22:37;27.40;99.90
46283;DHT22;32017;43.700;11.820;2023-07-13T08:24:58;27.40;99.90
46283;DHT22;32017;43.700;11.820;2023-07-13T08:27:18;27.80;99.90
46283;DHT22;32017;43.700;11.820;2023-07-13T08:29:39;27.90;99.50
46283;DHT22;32017;43.700;11.820;2023-07-13T08:31:59;27.50;99.90
46283;DHT22;32017;43.700;11.820;2023-07-13T08:34:19;27.60;99.90
46283;DHT22;32017;43.700;11.820;2023-07-13T08:36:39;28.10;99.90
46283;DHT22;32017;43.700;11.820;2023-07-13T08:38:59;28.00;99.90
46283;DHT22;32017;43.700;11.820;2023-07-13T08:41:20;27.90;99.90
46283;DHT22;32017;43.700;11.820;2023-07-13T08:43:41;27.80;98.70
46283;DHT22;32017;43.700;11.820;2023-07-13T08:46:13;27.80;98.70
46283;DHT22;32017;43.700;11.820;2023-07-13T08:48:57;27.70;98.60
46283;DHT22;32017;43.700;11.820;2023-07-13T08:51:40;28.00;98.50
46283;DHT22;32017;43.700;11.820;2023-07-13T08:54:09;28.10;98.10
46283;DHT22;32017;43.700;11.820;2023-07-13T08:56:31;28.00;98.40
46283;DHT22;32017;43.700;11.820;2023-07-13T08:58:56;28.30;99.20
46283;DHT22;32017;43.700;11.820;2023-07-13T09:04:30;28.40;98.40
46283;DHT22;32017;43.700;11.820;2023-07-13T09:07:14;28.50;97.90
46283;DHT22;32017;43.700;11.820;2023-07-13T09:09:51;28.40;97.50
46283;DHT22;32017;43.700;11.820;2023-07-13T09:12:17;28.60;97.80
46283;DHT22;32017;43.700;11.820;2023-07-13T09:14:45;28.90;97.00
46283;DHT22;32017;43.700;11.820;2023-07-13T09:17:20;28.40;97.00
46283;DHT22;32017;43.700;11.820;2023-07-13T09:19:42;28.20;97.80
46283;DHT22;32017;43.700;11.820;2023-07-13T09:22:07;28.10;97.60
46283;DHT22;32017;43.700;11.820;2023-07-13T09:24:55;28.20;97.90
46283;DHT22;32017;43.700;11.820;2023-07-13T09:27:24;28.20;98.50
46283;DHT22;32017;43.700;11.820;2023-07-13T09:30:15;28.30;98.80
46283;DHT22;32017;43.700;11.820;2023-07-13T09:32:38;28.30;97.90
46283;DHT22;32017;43.700;11.820;2023-07-13T09:34:59;28.10;97.80
46283;DHT22;32017;43.700;11.820;2023-07-13T09:37:22;28.10;98.50
46283;DHT22;32017;43.700;11.820;2023-07-13T09:39:42;27.70;98.40
46283;DHT22;32017;43.700;11.820;2023-07-13T09:42:16;27.50;98.20
46283;DHT22;32017;43.700;11.820;2023-07-13T09:44:42;27.60;98.60
46283;DHT22;32017;43.700;11.820;2023-07-13T09:47:14;27.60;98.90
46283;DHT22;32017;43.700;11.820;2023-07-13T09:49:36;27.60;98.50
46283;DHT22;32017;43.700;11.820;2023-07-13T09:52:01;27.60;98.90
46283;DHT22;32017;43.700;11.820;2023-07-13T09:54:24;27.70;99.10
46283;DHT22;32017;43.700;11.820;2023-07-13T09:56:45;27.80;98.80
46283;DHT22;32017;43.700;11.820;2023-07-13T09:59:22;27.80;98.70
46283;DHT22;32017;43.700;11.820;2023-07-13T10:01:43;27.70;99.00
46283;DHT22;32017;43.700;11.820;2023-07-13T10:04:13;27.70;99.20
46283;DHT22;32017;43.700;11.820;2023-07-13T10:06:33;28.00;99.10
46283;DHT22;32017;43.700;11.820;2023-07-13T10:08:56;28.10;99.00
46283;DHT22;32017;43.700;11.820;2023-07-13T10:13:40;28.50;98.90
46283;DHT22;32017;43.700;11.820;2023-07-13T10:16:03;28.50;98.30
46283;DHT22;32017;43.700;11.820;2023-07-13T10:18:25;28.20;98.50
46283;DHT22;32017;43.700;11.820;2023-07-13T10:20:45;28.10;98.60
46283;DHT22;32017;43.700;11.820;2023-07-13T10:23:13;28.10;99.40
46283;DHT22;32017;43.700;11.820;2023-07-13T10:25:38;28.10;99.00
46283;DHT22;32017;43.700;11.820;2023-07-13T10:30:46;28.00;99.00
46283;DHT22;32017;43.700;11.820;2023-07-13T10:33:10;27.80;98.90
46283;DHT22;32017;43.700;11.820;2023-07-13T10:35:31;27.70;98.80
46283;DHT22;32017;43.700;11.820;2023-07-13T10:40:18;27.60;99.10
46283;DHT22;32017;43.700;11.820;2023-07-13T10:42:42;27.70;99.10
46283;DHT22;32017;43.700;11.820;2023-07-13T10:45:21;27.80;99.50
46283;DHT22;32017;43.700;11.820;2023-07-13T10:47:43;27.80;99.70
46283;DHT22;32017;43.700;11.820;2023-07-13T10:50:04;27.80;99.60
46283;DHT22;32017;43.700;11.820;2023-07-13T10:52:47;27.60;99.70
46283;DHT22;32017;43.700;11.820;2023-07-13T10:57:46;27.50;99.90
46283;DHT22;32017;43.700;11.820;2023-07-13T11:00:16;27.60;99.90
46283;DHT22;32017;43.700;11.820;2023-07-13T11:02:37;27.70;99.90
46283;DHT22;32017;43.700;11.820;2023-07-13T11:04:57;27.80;99.90
46283;DHT22;32017;43.700;11.820;2023-07-13T11:07:27;27.90;99.90
46283;DHT22;32017;43.700;11.820;2023-07-13T11:09:52;28.00;99.90
46283;DHT22;32017;43.700;11.820;2023-07-13T11:12:26;28.00;99.90
46283;DHT22;32017;43.700;11.820;2023-07-13T11:17:35;27.90;99.90
46283;DHT22;32017;43.700;11.820;2023-07-13T11:22:49;27.90;99.90
46283;DHT22;32017;43.700;11.820;2023-07-13T11:25:31;28.00;99.90
46283;DHT22;32017;43.700;11.820;2023-07-13T11:28:13;28.10;99.90
46283;DHT22;32017;43.700;11.820;2023-07-13T11:30:41;28.10;99.90
46283;DHT22;32017;43.700;11.820;2023-07-13T11:35:36;28.00;99.90
46283;DHT22;32017;43.700;11.820;2023-07-13T11:37:58;27.90;99.90
46283;DHT22;32017;43.700;11.820;2023-07-13T11:40:19;27.90;99.90
46283;DHT22;32017;43.700;11.820;2023-07-13T11:42:42;28.00;99.90
46283;DHT22;32017;43.700;11.820;2023-07-13T11:45:20;28.10;99.90
46283;DHT22;32017;43.700;11.820;2023-07-13T11:47:54;28.30;99.90
46283;DHT22;32017;43.700;11.820;2023-07-13T11:50:21;28.50;99.90
46283;DHT22;32017;43.700;11.820;2023-07-13T11:52:43;28.60;99.90
46283;DHT22;32017;43.700;11.820;2023-07-13T11:55:14;28.40;99.90
46283;DHT22;32017;43.700;11.820;2023-07-13T11:57:39;28.40;99.90
46283;DHT22;32017;43.700;11.820;2023-07-13T12:00:04;28.40;99.90
46283;DHT22;32017;43.700;11.820;2023-07-13T12:02:35;28.20;99.90
46283;DHT22;32017;43.700;11.820;2023-07-13T12:04:56;28.60;99.90
46283;DHT22;32017;43.700;11.820;2023-07-13T12:07:19;28.60;99.90
46283;DHT22;32017;43.700;11.820;2023-07-13T12:09:39;28.40;99.90
46283;DHT22;32017;43.700;11.820;2023-07-13T12:11:59;28.20;99.90
46283;DHT22;32017;43.700;11.820;2023-07-13T12:14:22;28.20;99.90
46283;DHT22;32017;43.700;11.820;2023-07-13T12:16:48;28.30;99.90
46283;DHT22;32017;43.700;11.820;2023-07-13T12:19:18;28.60;99.90
46283;DHT22;32017;43.700;11.820;2023-07-13T12:21:41;28.70;99.90
46283;DHT22;32017;43.700;11.820;2023-07-13T12:24:02;29.10;99.90
46283;DHT22;32017;43.700;11.820;2023-07-13T12:26:24;29.00;99.90
46283;DHT22;32017;43.700;11.820;2023-07-13T12:28:49;29.10;99.90
46283;DHT22;32017;43.700;11.820;2023-07-13T12:34:06;29.00;99.90
46283;DHT22;32017;43.700;11.820;2023-07-13T12:36:33;29.50;99.90
46283;DHT22;32017;43.700;11.820;2023-07-13T12:38:54;29.90;99.60
46283;DHT22;32017;43.700;11.820;2023-07-13T12:41:15;30.00;99.90
46283;DHT22;32017;43.700;11.820;2023-07-13T12:43:36;29.90;99.90
46283;DHT22;32017;43.700;11.820;2023-07-13T12:46:03;30.40;99.10
46283;DHT22;32017;43.700;11.820;2023-07-13T12:48:23;30.00;98.80
46283;DHT22;32017;43.700;11.820;2023-07-13T12:51:01;29.70;99.40
46283;DHT22;32017;43.700;11.820;2023-07-13T12:53:24;29.40;99.90
46283;DHT22;32017;43.700;11.820;2023-07-13T12:55:54;29.60;99.70
46283;DHT22;32017;43.700;11.820;2023-07-13T12:58:32;30.30;99.90
46283;DHT22;32017;43.700;11.820;2023-07-13T13:00:58;30.20;99.40
46283;DHT22;32017;43.700;11.820;2023-07-13T13:05:58;29.70;99.90
46283;DHT22;32017;43.700;11.820;2023-07-13T13:08:19;29.90;99.90
46283;DHT22;32017;43.700;11.820;2023-07-13T13:10:40;30.00;99.90
46283;DHT22;32017;43.700;11.820;2023-07-13T13:13:00;30.20;99.40
46283;DHT22;32017;43.700;11.820;2023-07-13T13:15:20;30.10;99.30
46283;DHT22;32017;43.700;11.820;2023-07-13T13:17:42;30.30;99.20
46283;DHT22;32017;43.700;11.820;2023-07-13T13:20:13;30.30;99.20
46283;DHT22;32017;43.700;11.820;2023-07-13T13:22:33;30.20;99.30
46283;DHT22;32017;43.700;11.820;2023-07-13T13:24:53;30.10;98.80
46283;DHT22;32017;43.700;11.820;2023-07-13T13:27:18;29.90;99.60
46283;DHT22;32017;43.700;11.820;2023-07-13T13:29:39;29.70;99.80
46283;DHT22;32017;43.700;11.820;2023-07-13T13:31:59;29.80;99.10
46283;DHT22;32017;43.700;11.820;2023-07-13T13:34:21;30.30;99.90
46283;DHT22;32017;43.700;11.820;2023-07-13T13:36:45;30.30;98.90
46283;DHT22;32017;43.700;11.820;2023-07-13T13:39:28;30.00;99.50
46283;DHT22;32017;43.700;11.820;2023-07-13T13:41:52;29.60;99.40
46283;DHT22;32017;43.700;11.820;2023-07-13T13:44:17;29.80;99.60
46283;DHT22;32017;43.700;11.820;2023-07-13T13:46:37;29.60;99.90
46283;DHT22;32017;43.700;11.820;2023-07-13T13:48:57;29.70;99.90
46283;DHT22;32017;43.700;11.820;2023-07-13T13:51:20;29.90;99.90
46283;DHT22;32017;43.700;11.820;2023-07-13T13:53:40;29.70;99.90
46283;DHT22;32017;43.700;11.820;2023-07-13T13:56:01;29.60;99.90
46283;DHT22;32017;43.700;11.820;2023-07-13T13:58:21;29.90;99.90
46283;DHT22;32017;43.700;11.820;2023-07-13T14:00:41;29.90;99.90
46283;DHT22;32017;43.700;11.820;2023-07-13T14:03:05;30.10;99.90
46283;DHT22;32017;43.700;11.820;2023-07-13T14:05:27;30.30;99.90
46283;DHT22;32017;43.700;11.820;2023-07-13T14:07:49;30.40;99.90
46283;DHT22;32017;43.700;11.820;2023-07-13T14:10:17;30.20;99.90
46283;DHT22;32017;43.700;11.820;2023-07-13T14:12:39;29.90;99.60
46283;DHT22;32017;43.700;11.820;2023-07-13T14:14:59;29.80;99.80
46283;DHT22;32017;43.700;11.820;2023-07-13T14:17:21;30.00;99.80
46283;DHT22;32017;43.700;11.820;2023-07-13T14:19:42;29.90;99.90
46283;DHT22;32017;43.700;11.820;2023-07-13T14:22:03;30.00;99.30
46283;DHT22;32017;43.700;11.820;2023-07-13T14:24:23;30.20;99.70
46283;DHT22;32017;43.700;11.820;2023-07-13T14:26:43;30.10;98.70
46283;DHT22;32017;43.700;11.820;2023-07-13T14:29:11;30.20;99.60
46283;DHT22;32017;43.700;11.820;2023-07-13T14:31:31;30.70;99.10
46283;DHT22;32017;43.700;11.820;2023-07-13T14:33:52;30.60;98.40
46283;DHT22;32017;43.700;11.820;2023-07-13T14:38:47;30.40;98.70
46283;DHT22;32017;43.700;11.820;2023-07-13T14:41:08;30.70;98.50
46283;DHT22;32017;43.700;11.820;2023-07-13T14:43:28;30.50;98.30
46283;DHT22;32017;43.700;11.820;2023-07-13T14:45:50;30.00;99.30
46283;DHT22;32017;43.700;11.820;2023-07-13T14:48:21;30.30;99.30
46283;DHT22;32017;43.700;11.820;2023-07-13T14:50:41;30.70;98.80
46283;DHT22;32017;43.700;11.820;2023-07-13T14:53:02;30.80;98.40
46283;DHT22;32017;43.700;11.820;2023-07-13T14:55:22;30.40;98.30
46283;DHT22;32017;43.700;11.820;2023-07-13T14:57:46;30.30;98.40
46283;DHT22;32017;43.700;11.820;2023-07-13T15:00:17;30.20;98.70
46283;DHT22;32017;43.700;11.820;2023-07-13T15:02:38;30.30;98.70
46283;DHT22;32017;43.700;11.820;2023-07-13T15:04:58;30.30;98.10
46283;DHT22;32017;43.700;11.820;2023-07-13T15:07:19;30.20;98.30
46283;DHT22;32017;43.700;11.820;2023-07-13T15:09:40;30.30;97.80
46283;DHT22;32017;43.700;11.820;2023-07-13T15:12:00;30.40;97.60
46283;DHT22;32017;43.700;11.820;2023-07-13T15:14:20;30.40;98.10
46283;DHT22;32017;43.700;11.820;2023-07-13T15:16:40;30.30;98.10
46283;DHT22;32017;43.700;11.820;2023-07-13T15:19:01;30.30;98.20